sensor_id;sensor_type;location;lat;lon;timestamp;P1;durP1;ratioP1;P2;durP2;ratioP2
33453;SDS011;39400;49.744;7.012;2023-07-20T00:01:26;5.15;;;2.22;;
33453;SDS011;39400;49.744;7.012;2023-07-20T00:03:51;4.38;;;2.10;;
33453;SDS011;39400;49.744;7.012;2023-07-20T00:06:17;4.80;;;2.35;;
33453;SDS011;39400;49.744;7.012;2023-07-20T00:08:42;4.20;;;2.25;;
33453;SDS011;39400;49.744;7.012;2023-07-20T00:11:07;2.90;;;2.00;;
33453;SDS011;39400;49.744;7.012;2023-07-20T00:13:33;5.95;;;2.92;;
33453;SDS011;39400;49.744;7.012;2023-07-20T00:15:58;8.90;;;2.55;;
33453;SDS011;39400;49.744;7.012;2023-07-20T00:18:23;4.35;;;2.33;;
33453;SDS011;39400;49.744;7.012;2023-07-20T00:20:49;5.40;;;2.67;;
33453;SDS011;39400;49.744;7.012;2023-07-20T00:23:14;5.45;;;2.53;;
33453;SDS011;39400;49.744;7.012;2023-07-20T00:25:39;3.90;;;2.50;;
33453;SDS011;39400;49.744;7.012;2023-07-20T00:28:04;5.00;;;2.67;;
33453;SDS011;39400;49.744;7.012;2023-07-20T00:30:30;8.32;;;2.55;;
33453;SDS011;39400;49.744;7.012;2023-07-20T00:32:55;5.43;;;2.65;;
33453;SDS011;39400;49.744;7.012;2023-07-20T00:35:21;5.60;;;2.38;;
33453;SDS011;39400;49.744;7.012;2023-07-20T00:37:47;7.47;;;2.58;;
33453;SDS011;39400;49.744;7.012;2023-07-20T00:40:12;8.27;;;2.25;;
33453;SDS011;39400;49.744;7.012;2023-07-20T00:42:37;6.07;;;2.35;;
33453;SDS011;39400;49.744;7.012;2023-07-20T00:45:03;3.97;;;2.13;;
33453;SDS011;39400;49.744;7.012;2023-07-20T00:47:28;3.15;;;1.77;;
33453;SDS011;39400;49.744;7.012;2023-07-20T00:49:54;4.50;;;2.38;;
33453;SDS011;39400;49.744;7.012;2023-07-20T00:52:20;4.30;;;2.50;;
33453;SDS011;39400;49.744;7.012;2023-07-20T00:54:48;6.10;;;2.20;;
33453;SDS011;39400;49.744;7.012;2023-07-20T00:57:14;4.57;;;2.22;;
33453;SDS011;39400;49.744;7.012;2023-07-20T00:59:40;6.72;;;2.15;;
33453;SDS011;39400;49.744;7.012;2023-07-20T01:02:05;4.40;;;1.92;;
33453;SDS011;39400;49.744;7.012;2023-07-20T01:04:31;4.97;;;2.40;;
33453;SDS011;39400;49.744;7.012;2023-07-20T01:06:58;5.32;;;2.10;;
33453;SDS011;39400;49.744;7.012;2023-07-20T01:12:41;3.78;;;2.10;;
33453;SDS011;39400;49.744;7.012;2023-07-20T01:15:08;4.50;;;2.35;;
33453;SDS011;39400;49.744;7.012;2023-07-20T01:17:34;6.20;;;2.50;;
33453;SDS011;39400;49.744;7.012;2023-07-20T01:20:00;6.80;;;2.58;;
33453;SDS011;39400;49.744;7.012;2023-07-20T01:25:29;7.70;;;2.30;;
33453;SDS011;39400;49.744;7.012;2023-07-20T01:28:27;5.22;;;2.70;;
33453;SDS011;39400;49.744;7.012;2023-07-20T01:33:53;4.90;;;2.03;;
33453;SDS011;39400;49.744;7.012;2023-07-20T01:36:20;4.00;;;1.85;;
33453;SDS011;39400;49.744;7.012;2023-07-20T01:38:48;5.20;;;2.03;;
33453;SDS011;39400;49.744;7.012;2023-07-20T01:41:14;8.57;;;2.30;;
33453;SDS011;39400;49.744;7.012;2023-07-20T01:43:40;4.57;;;2.70;;
33453;SDS011;39400;49.744;7.012;2023-07-20T01:46:05;4.38;;;1.88;;
33453;SDS011;39400;49.744;7.012;2023-07-20T01:48:31;4.20;;;1.98;;
33453;SDS011;39400;49.744;7.012;2023-07-20T01:50:56;5.50;;;2.63;;
33453;SDS011;39400;49.744;7.012;2023-07-20T01:53:22;7.22;;;2.58;;
33453;SDS011;39400;49.744;7.012;2023-07-20T01:55:47;4.25;;;1.83;;
33453;SDS011;39400;49.744;7.012;2023-07-20T01:58:13;3.25;;;2.00;;
33453;SDS011;39400;49.744;7.012;2023-07-20T02:00:38;4.70;;;2.40;;
33453;SDS011;39400;49.744;7.012;2023-07-20T02:03:04;3.72;;;2.33;;
33453;SDS011;39400;49.744;7.012;2023-07-20T02:05:32;5.35;;;1.85;;
33453;SDS011;39400;49.744;7.012;2023-07-20T02:07:58;5.43;;;2.53;;
33453;SDS011;39400;49.744;7.012;2023-07-20T02:10:23;7.85;;;2.22;;
33453;SDS011;39400;49.744;7.012;2023-07-20T02:12:48;3.50;;;1.92;;
33453;SDS011;39400;49.744;7.012;2023-07-20T02:15:14;6.22;;;2.30;;
33453;SDS011;39400;49.744;7.012;2023-07-20T02:17:39;4.03;;;1.50;;
33453;SDS011;39400;49.744;7.012;2023-07-20T02:20:05;3.10;;;1.90;;
33453;SDS011;39400;49.744;7.012;2023-07-20T02:22:31;4.50;;;1.70;;
33453;SDS011;39400;49.744;7.012;2023-07-20T02:24:56;4.00;;;1.92;;
33453;SDS011;39400;49.744;7.012;2023-07-20T02:27:22;6.95;;;2.78;;
33453;SDS011;39400;49.744;7.012;2023-07-20T02:29:47;5.40;;;2.17;;
33453;SDS011;39400;49.744;7.012;2023-07-20T02:32:12;7.40;;;2.25;;
33453;SDS011;39400;49.744;7.012;2023-07-20T02:34:38;4.53;;;2.25;;
33453;SDS011;39400;49.744;7.012;2023-07-20T02:37:03;3.97;;;2.33;;
33453;SDS011;39400;49.744;7.012;2023-07-20T02:39:29;3.65;;;2.05;;
33453;SDS011;39400;49.744;7.012;2023-07-20T02:41:55;4.60;;;1.83;;
33453;SDS011;39400;49.744;7.012;2023-07-20T02:44:20;3.80;;;2.22;;
33453;SDS011;39400;49.744;7.012;2023-07-20T02:46:45;4.93;;;2.17;;
33453;SDS011;39400;49.744;7.012;2023-07-20T02:49:11;4.47;;;2.00;;
33453;SDS011;39400;49.744;7.012;2023-07-20T02:51:36;5.80;;;2.63;;
33453;SDS011;39400;49.744;7.012;2023-07-20T02:54:02;3.47;;;2.08;;
33453;SDS011;39400;49.744;7.012;2023-07-20T02:56:27;4.10;;;1.88;;
33453;SDS011;39400;49.744;7.012;2023-07-20T02:58:52;6.88;;;2.03;;
33453;SDS011;39400;49.744;7.012;2023-07-20T03:01:18;5.47;;;2.30;;
33453;SDS011;39400;49.744;7.012;2023-07-20T03:03:43;8.93;;;1.90;;
33453;SDS011;39400;49.744;7.012;2023-07-20T03:06:08;4.68;;;2.05;;
33453;SDS011;39400;49.744;7.012;2023-07-20T03:08:34;5.47;;;2.20;;
33453;SDS011;39400;49.744;7.012;2023-07-20T03:10:59;5.13;;;2.20;;
33453;SDS011;39400;49.744;7.012;2023-07-20T03:13:24;3.58;;;2.17;;
33453;SDS011;39400;49.744;7.012;2023-07-20T03:15:51;3.95;;;2.08;;
33453;SDS011;39400;49.744;7.012;2023-07-20T03:18:17;5.45;;;2.03;;
33453;SDS011;39400;49.744;7.012;2023-07-20T03:20:42;4.20;;;2.90;;
33453;SDS011;39400;49.744;7.012;2023-07-20T03:23:08;5.75;;;2.65;;
33453;SDS011;39400;49.744;7.012;2023-07-20T03:25:33;5.90;;;2.72;;
33453;SDS011;39400;49.744;7.012;2023-07-20T03:27:59;6.55;;;2.45;;
33453;SDS011;39400;49.744;7.012;2023-07-20T03:30:25;8.80;;;3.13;;
33453;SDS011;39400;49.744;7.012;2023-07-20T03:32:51;10.07;;;3.63;;
33453;SDS011;39400;49.744;7.012;2023-07-20T03:35:16;6.63;;;2.80;;
33453;SDS011;39400;49.744;7.012;2023-07-20T03:37:42;5.45;;;2.30;;
33453;SDS011;39400;49.744;7.012;2023-07-20T03:40:07;5.43;;;2.22;;
33453;SDS011;39400;49.744;7.012;2023-07-20T03:42:33;7.63;;;4.13;;
33453;SDS011;39400;49.744;7.012;2023-07-20T03:44:58;5.28;;;2.67;;
33453;SDS011;39400;49.744;7.012;2023-07-20T03:47:24;5.47;;;2.20;;
33453;SDS011;39400;49.744;7.012;2023-07-20T03:49:51;4.50;;;2.67;;
33453;SDS011;39400;49.744;7.012;2023-07-20T03:52:16;5.65;;;2.60;;
33453;SDS011;39400;49.744;7.012;2023-07-20T03:54:41;8.35;;;2.50;;
33453;SDS011;39400;49.744;7.012;2023-07-20T03:57:07;6.80;;;2.10;;
33453;SDS011;39400;49.744;7.012;2023-07-20T03:59:32;6.30;;;2.58;;
33453;SDS011;39400;49.744;7.012;2023-07-20T04:01:57;5.75;;;2.25;;
33453;SDS011;39400;49.744;7.012;2023-07-20T04:04:22;8.32;;;2.78;;
33453;SDS011;39400;49.744;7.012;2023-07-20T04:06:48;5.95;;;3.00;;
33453;SDS011;39400;49.744;7.012;2023-07-20T04:09:13;6.68;;;2.50;;
33453;SDS011;39400;49.744;7.012;2023-07-20T04:11:38;5.07;;;2.08;;
33453;SDS011;39400;49.744;7.012;2023-07-20T04:14:04;4.05;;;1.92;;
33453;SDS011;39400;49.744;7.012;2023-07-20T04:16:29;4.10;;;2.28;;
33453;SDS011;39400;49.744;7.012;2023-07-20T04:18:55;4.60;;;2.30;;
33453;SDS011;39400;49.744;7.012;2023-07-20T04:21:21;6.38;;;1.92;;
33453;SDS011;39400;49.744;7.012;2023-07-20T04:23:47;6.28;;;2.35;;
33453;SDS011;39400;49.744;7.012;2023-07-20T04:26:13;5.15;;;2.00;;
33453;SDS011;39400;49.744;7.012;2023-07-20T04:28:38;5.10;;;2.22;;
33453;SDS011;39400;49.744;7.012;2023-07-20T04:31:14;4.30;;;3.22;;
33453;SDS011;39400;49.744;7.012;2023-07-20T04:33:42;6.85;;;2.67;;
33453;SDS011;39400;49.744;7.012;2023-07-20T04:36:07;3.22;;;2.25;;
33453;SDS011;39400;49.744;7.012;2023-07-20T04:38:34;5.82;;;3.05;;
33453;SDS011;39400;49.744;7.012;2023-07-20T04:41:09;6.53;;;2.00;;
33453;SDS011;39400;49.744;7.012;2023-07-20T04:43:42;5.40;;;3.10;;
33453;SDS011;39400;49.744;7.012;2023-07-20T04:46:09;7.07;;;3.08;;
33453;SDS011;39400;49.744;7.012;2023-07-20T04:48:37;4.83;;;3.03;;
33453;SDS011;39400;49.744;7.012;2023-07-20T04:51:03;7.35;;;3.53;;
33453;SDS011;39400;49.744;7.012;2023-07-20T04:53:29;6.00;;;2.80;;
33453;SDS011;39400;49.744;7.012;2023-07-20T04:55:54;8.55;;;2.95;;
33453;SDS011;39400;49.744;7.012;2023-07-20T04:58:22;5.72;;;2.65;;
33453;SDS011;39400;49.744;7.012;2023-07-20T05:00:48;5.57;;;2.88;;
33453;SDS011;39400;49.744;7.012;2023-07-20T05:03:14;7.00;;;2.70;;
33453;SDS011;39400;49.744;7.012;2023-07-20T05:05:40;6.38;;;2.65;;
33453;SDS011;39400;49.744;7.012;2023-07-20T05:08:06;5.82;;;3.38;;
33453;SDS011;39400;49.744;7.012;2023-07-20T05:10:31;4.95;;;2.88;;
33453;SDS011;39400;49.744;7.012;2023-07-20T05:12:57;6.00;;;2.67;;
33453;SDS011;39400;49.744;7.012;2023-07-20T05:15:22;6.05;;;2.90;;
33453;SDS011;39400;49.744;7.012;2023-07-20T05:17:47;6.93;;;2.58;;
33453;SDS011;39400;49.744;7.012;2023-07-20T05:20:13;6.70;;;3.17;;
33453;SDS011;39400;49.744;7.012;2023-07-20T05:22:38;5.78;;;2.67;;
33453;SDS011;39400;49.744;7.012;2023-07-20T05:25:03;7.50;;;2.55;;
33453;SDS011;39400;49.744;7.012;2023-07-20T05:27:29;7.38;;;3.15;;
33453;SDS011;39400;49.744;7.012;2023-07-20T05:29:54;8.10;;;3.00;;
33453;SDS011;39400;49.744;7.012;2023-07-20T05:32:20;9.20;;;2.67;;
33453;SDS011;39400;49.744;7.012;2023-07-20T05:34:45;8.32;;;2.75;;
33453;SDS011;39400;49.744;7.012;2023-07-20T05:37:10;5.25;;;2.53;;
33453;SDS011;39400;49.744;7.012;2023-07-20T05:39:36;7.63;;;3.10;;
33453;SDS011;39400;49.744;7.012;2023-07-20T05:42:01;7.10;;;3.30;;
33453;SDS011;39400;49.744;7.012;2023-07-20T05:44:26;6.20;;;2.90;;
33453;SDS011;39400;49.744;7.012;2023-07-20T05:46:52;7.15;;;3.40;;
33453;SDS011;39400;49.744;7.012;2023-07-20T05:49:17;8.65;;;3.10;;
33453;SDS011;39400;49.744;7.012;2023-07-20T05:51:42;8.20;;;2.88;;
33453;SDS011;39400;49.744;7.012;2023-07-20T05:54:07;6.00;;;2.58;;
33453;SDS011;39400;49.744;7.012;2023-07-20T05:56:33;6.90;;;3.40;;
33453;SDS011;39400;49.744;7.012;2023-07-20T05:58:58;8.25;;;2.60;;
33453;SDS011;39400;49.744;7.012;2023-07-20T06:01:23;9.52;;;3.53;;
33453;SDS011;39400;49.744;7.012;2023-07-20T06:03:49;6.43;;;2.80;;
33453;SDS011;39400;49.744;7.012;2023-07-20T06:06:14;4.20;;;2.22;;
33453;SDS011;39400;49.744;7.012;2023-07-20T06:08:39;11.25;;;3.75;;
33453;SDS011;39400;49.744;7.012;2023-07-20T06:11:05;6.70;;;3.28;;
33453;SDS011;39400;49.744;7.012;2023-07-20T06:13:30;10.55;;;3.45;;
33453;SDS011;39400;49.744;7.012;2023-07-20T06:15:55;9.23;;;2.60;;
33453;SDS011;39400;49.744;7.012;2023-07-20T06:18:23;8.73;;;2.88;;
33453;SDS011;39400;49.744;7.012;2023-07-20T06:20:51;8.57;;;3.47;;
33453;SDS011;39400;49.744;7.012;2023-07-20T06:23:20;6.43;;;2.35;;
33453;SDS011;39400;49.744;7.012;2023-07-20T06:25:45;6.32;;;2.17;;
33453;SDS011;39400;49.744;7.012;2023-07-20T06:28:11;4.97;;;2.75;;
33453;SDS011;39400;49.744;7.012;2023-07-20T06:30:38;5.82;;;2.80;;
33453;SDS011;39400;49.744;7.012;2023-07-20T06:33:03;5.13;;;2.40;;
33453;SDS011;39400;49.744;7.012;2023-07-20T06:35:28;3.55;;;2.47;;
33453;SDS011;39400;49.744;7.012;2023-07-20T06:37:54;4.43;;;2.22;;
33453;SDS011;39400;49.744;7.012;2023-07-20T06:40:19;6.75;;;3.35;;
33453;SDS011;39400;49.744;7.012;2023-07-20T06:42:45;5.07;;;2.20;;
33453;SDS011;39400;49.744;7.012;2023-07-20T06:45:10;5.05;;;2.47;;
33453;SDS011;39400;49.744;7.012;2023-07-20T06:47:39;5.35;;;2.50;;
33453;SDS011;39400;49.744;7.012;2023-07-20T06:50:05;6.72;;;2.58;;
33453;SDS011;39400;49.744;7.012;2023-07-20T06:54:59;6.95;;;2.13;;
33453;SDS011;39400;49.744;7.012;2023-07-20T06:57:25;6.97;;;3.00;;
33453;SDS011;39400;49.744;7.012;2023-07-20T06:59:50;12.60;;;3.08;;
33453;SDS011;39400;49.744;7.012;2023-07-20T07:02:15;9.55;;;3.15;;
33453;SDS011;39400;49.744;7.012;2023-07-20T07:04:41;5.45;;;2.72;;
33453;SDS011;39400;49.744;7.012;2023-07-20T07:07:07;7.63;;;3.22;;
33453;SDS011;39400;49.744;7.012;2023-07-20T07:09:32;4.20;;;2.30;;
33453;SDS011;39400;49.744;7.012;2023-07-20T07:11:58;5.85;;;3.13;;
33453;SDS011;39400;49.744;7.012;2023-07-20T07:14:23;5.75;;;2.80;;
33453;SDS011;39400;49.744;7.012;2023-07-20T07:16:48;7.30;;;3.15;;
33453;SDS011;39400;49.744;7.012;2023-07-20T07:19:14;10.57;;;2.75;;
33453;SDS011;39400;49.744;7.012;2023-07-20T07:21:39;5.97;;;2.70;;
33453;SDS011;39400;49.744;7.012;2023-07-20T07:24:04;8.93;;;2.85;;
33453;SDS011;39400;49.744;7.012;2023-07-20T07:26:30;7.30;;;2.50;;
33453;SDS011;39400;49.744;7.012;2023-07-20T07:28:55;12.15;;;2.60;;
33453;SDS011;39400;49.744;7.012;2023-07-20T07:31:21;10.00;;;3.53;;
33453;SDS011;39400;49.744;7.012;2023-07-20T07:33:46;9.13;;;2.70;;
33453;SDS011;39400;49.744;7.012;2023-07-20T07:36:11;4.75;;;2.30;;
33453;SDS011;39400;49.744;7.012;2023-07-20T07:38:37;8.80;;;3.08;;
33453;SDS011;39400;49.744;7.012;2023-07-20T07:41:02;9.70;;;3.67;;
33453;SDS011;39400;49.744;7.012;2023-07-20T07:43:27;3.42;;;2.25;;
33453;SDS011;39400;49.744;7.012;2023-07-20T07:45:53;5.28;;;2.75;;
33453;SDS011;39400;49.744;7.012;2023-07-20T07:48:19;6.78;;;2.42;;
33453;SDS011;39400;49.744;7.012;2023-07-20T07:50:44;6.15;;;3.05;;
33453;SDS011;39400;49.744;7.012;2023-07-20T07:53:10;7.15;;;3.42;;
33453;SDS011;39400;49.744;7.012;2023-07-20T07:55:35;4.55;;;2.70;;
33453;SDS011;39400;49.744;7.012;2023-07-20T07:58:00;6.15;;;2.80;;
33453;SDS011;39400;49.744;7.012;2023-07-20T08:00:26;5.20;;;2.58;;
33453;SDS011;39400;49.744;7.012;2023-07-20T08:02:51;6.47;;;2.92;;
33453;SDS011;39400;49.744;7.012;2023-07-20T08:05:17;6.55;;;3.38;;
33453;SDS011;39400;49.744;7.012;2023-07-20T08:07:42;9.40;;;4.63;;
33453;SDS011;39400;49.744;7.012;2023-07-20T08:10:07;5.63;;;3.05;;
33453;SDS011;39400;49.744;7.012;2023-07-20T08:12:33;8.80;;;3.30;;
33453;SDS011;39400;49.744;7.012;2023-07-20T08:14:59;9.77;;;3.20;;
33453;SDS011;39400;49.744;7.012;2023-07-20T08:17:24;8.45;;;3.83;;
33453;SDS011;39400;49.744;7.012;2023-07-20T08:19:50;7.05;;;2.83;;
33453;SDS011;39400;49.744;7.012;2023-07-20T08:22:15;5.97;;;2.40;;
33453;SDS011;39400;49.744;7.012;2023-07-20T08:24:41;5.07;;;2.53;;
33453;SDS011;39400;49.744;7.012;2023-07-20T08:27:07;5.13;;;2.33;;
33453;SDS011;39400;49.744;7.012;2023-07-20T08:29:33;6.03;;;2.20;;
33453;SDS011;39400;49.744;7.012;2023-07-20T08:31:58;5.65;;;2.42;;
33453;SDS011;39400;49.744;7.012;2023-07-20T08:34:23;7.30;;;2.83;;
33453;SDS011;39400;49.744;7.012;2023-07-20T08:36:48;6.80;;;2.90;;
33453;SDS011;39400;49.744;7.012;2023-07-20T08:39:14;7.45;;;2.42;;
33453;SDS011;39400;49.744;7.012;2023-07-20T08:41:39;7.97;;;2.15;;
33453;SDS011;39400;49.744;7.012;2023-07-20T08:44:08;6.82;;;2.55;;
33453;SDS011;39400;49.744;7.012;2023-07-20T08:46:33;5.57;;;2.38;;
33453;SDS011;39400;49.744;7.012;2023-07-20T08:49:03;4.70;;;2.08;;
33453;SDS011;39400;49.744;7.012;2023-07-20T08:51:28;4.43;;;2.25;;
33453;SDS011;39400;49.744;7.012;2023-07-20T08:53:54;7.88;;;3.05;;
33453;SDS011;39400;49.744;7.012;2023-07-20T08:56:20;4.70;;;2.28;;
33453;SDS011;39400;49.744;7.012;2023-07-20T08:58:46;7.28;;;2.20;;
33453;SDS011;39400;49.744;7.012;2023-07-20T09:01:11;2.95;;;1.95;;
33453;SDS011;39400;49.744;7.012;2023-07-20T09:03:37;10.60;;;2.67;;
33453;SDS011;39400;49.744;7.012;2023-07-20T09:06:03;7.55;;;2.42;;
33453;SDS011;39400;49.744;7.012;2023-07-20T09:08:28;5.03;;;2.30;;
33453;SDS011;39400;49.744;7.012;2023-07-20T09:10:54;6.72;;;2.35;;
33453;SDS011;39400;49.744;7.012;2023-07-20T09:13:19;7.95;;;2.45;;
33453;SDS011;39400;49.744;7.012;2023-07-20T09:15:48;3.45;;;2.03;;
33453;SDS011;39400;49.744;7.012;2023-07-20T09:18:25;3.50;;;1.88;;
33453;SDS011;39400;49.744;7.012;2023-07-20T09:20:50;4.00;;;2.25;;
33453;SDS011;39400;49.744;7.012;2023-07-20T09:23:16;3.80;;;2.10;;
33453;SDS011;39400;49.744;7.012;2023-07-20T09:25:41;7.80;;;2.95;;
33453;SDS011;39400;49.744;7.012;2023-07-20T09:28:06;7.68;;;2.63;;
33453;SDS011;39400;49.744;7.012;2023-07-20T09:30:32;4.38;;;1.90;;
33453;SDS011;39400;49.744;7.012;2023-07-20T09:32:57;5.28;;;1.88;;
33453;SDS011;39400;49.744;7.012;2023-07-20T09:35:23;5.15;;;1.92;;
33453;SDS011;39400;49.744;7.012;2023-07-20T09:37:49;5.50;;;2.38;;
33453;SDS011;39400;49.744;7.012;2023-07-20T09:40:20;4.90;;;2.17;;
33453;SDS011;39400;49.744;7.012;2023-07-20T09:42:46;5.30;;;2.28;;
33453;SDS011;39400;49.744;7.012;2023-07-20T09:45:12;6.05;;;2.33;;
33453;SDS011;39400;49.744;7.012;2023-07-20T09:47:38;4.30;;;1.80;;
33453;SDS011;39400;49.744;7.012;2023-07-20T09:50:04;2.78;;;1.58;;
33453;SDS011;39400;49.744;7.012;2023-07-20T09:52:31;3.20;;;1.73;;
33453;SDS011;39400;49.744;7.012;2023-07-20T09:54:57;3.55;;;2.10;;
33453;SDS011;39400;49.744;7.012;2023-07-20T09:57:23;5.45;;;2.22;;
33453;SDS011;39400;49.744;7.012;2023-07-20T09:59:50;6.38;;;1.85;;
33453;SDS011;39400;49.744;7.012;2023-07-20T10:02:25;3.38;;;1.65;;
33453;SDS011;39400;49.744;7.012;2023-07-20T10:04:56;4.38;;;1.90;;
33453;SDS011;39400;49.744;7.012;2023-07-20T10:07:27;3.70;;;2.13;;
33453;SDS011;39400;49.744;7.012;2023-07-20T10:09:55;3.83;;;1.95;;
33453;SDS011;39400;49.744;7.012;2023-07-20T10:12:24;3.72;;;2.03;;
33453;SDS011;39400;49.744;7.012;2023-07-20T10:14:52;4.75;;;2.00;;
33453;SDS011;39400;49.744;7.012;2023-07-20T10:17:25;3.90;;;2.22;;
33453;SDS011;39400;49.744;7.012;2023-07-20T10:19:51;4.25;;;2.17;;
33453;SDS011;39400;49.744;7.012;2023-07-20T10:22:25;4.97;;;1.70;;
33453;SDS011;39400;49.744;7.012;2023-07-20T10:24:51;3.85;;;1.50;;
33453;SDS011;39400;49.744;7.012;2023-07-20T10:27:16;3.78;;;1.80;;
33453;SDS011;39400;49.744;7.012;2023-07-20T10:29:42;3.00;;;1.55;;
33453;SDS011;39400;49.744;7.012;2023-07-20T10:32:08;3.42;;;1.50;;
33453;SDS011;39400;49.744;7.012;2023-07-20T10:34:34;3.53;;;1.48;;
33453;SDS011;39400;49.744;7.012;2023-07-20T10:37:00;4.07;;;1.55;;
33453;SDS011;39400;49.744;7.012;2023-07-20T10:39:26;2.40;;;1.35;;
33453;SDS011;39400;49.744;7.012;2023-07-20T10:42:08;2.50;;;1.60;;
33453;SDS011;39400;49.744;7.012;2023-07-20T10:44:37;4.47;;;1.58;;
33453;SDS011;39400;49.744;7.012;2023-07-20T10:47:07;3.88;;;1.50;;
33453;SDS011;39400;49.744;7.012;2023-07-20T10:49:34;5.80;;;2.72;;
33453;SDS011;39400;49.744;7.012;2023-07-20T10:52:00;5.55;;;1.70;;
33453;SDS011;39400;49.744;7.012;2023-07-20T10:56:57;5.60;;;1.57;;
33453;SDS011;39400;49.744;7.012;2023-07-20T10:59:43;7.82;;;1.45;;
33453;SDS011;39400;49.744;7.012;2023-07-20T11:02:12;3.13;;;1.23;;
33453;SDS011;39400;49.744;7.012;2023-07-20T11:04:38;4.63;;;1.60;;
33453;SDS011;39400;49.744;7.012;2023-07-20T11:07:05;5.05;;;1.80;;
33453;SDS011;39400;49.744;7.012;2023-07-20T11:09:33;2.60;;;1.50;;
33453;SDS011;39400;49.744;7.012;2023-07-20T11:12:09;6.28;;;1.55;;
33453;SDS011;39400;49.744;7.012;2023-07-20T11:14:39;9.30;;;1.70;;
33453;SDS011;39400;49.744;7.012;2023-07-20T11:17:15;2.60;;;1.60;;
33453;SDS011;39400;49.744;7.012;2023-07-20T11:19:40;5.05;;;2.03;;
33453;SDS011;39400;49.744;7.012;2023-07-20T11:22:06;4.22;;;1.88;;
33453;SDS011;39400;49.744;7.012;2023-07-20T11:24:31;8.35;;;2.13;;
33453;SDS011;39400;49.744;7.012;2023-07-20T11:26:57;3.92;;;1.92;;
33453;SDS011;39400;49.744;7.012;2023-07-20T11:29:22;6.65;;;1.67;;
33453;SDS011;39400;49.744;7.012;2023-07-20T11:31:48;5.68;;;1.90;;
33453;SDS011;39400;49.744;7.012;2023-07-20T11:36:44;1.52;;;1.00;;
33453;SDS011;39400;49.744;7.012;2023-07-20T11:39:12;5.13;;;1.80;;
33453;SDS011;39400;49.744;7.012;2023-07-20T11:41:38;6.38;;;2.17;;
33453;SDS011;39400;49.744;7.012;2023-07-20T11:44:09;3.40;;;1.60;;
33453;SDS011;39400;49.744;7.012;2023-07-20T11:46:35;11.48;;;1.50;;
33453;SDS011;39400;49.744;7.012;2023-07-20T11:49:00;6.50;;;1.80;;
33453;SDS011;39400;49.744;7.012;2023-07-20T11:51:26;4.40;;;1.77;;
33453;SDS011;39400;49.744;7.012;2023-07-20T11:53:53;3.33;;;1.40;;
33453;SDS011;39400;49.744;7.012;2023-07-20T11:56:18;4.85;;;1.38;;
33453;SDS011;39400;49.744;7.012;2023-07-20T11:58:44;4.88;;;1.48;;
33453;SDS011;39400;49.744;7.012;2023-07-20T12:01:11;1.48;;;0.98;;
33453;SDS011;39400;49.744;7.012;2023-07-20T12:03:37;2.83;;;1.55;;
33453;SDS011;39400;49.744;7.012;2023-07-20T12:06:06;2.00;;;1.20;;
33453;SDS011;39400;49.744;7.012;2023-07-20T12:08:32;2.25;;;1.05;;
33453;SDS011;39400;49.744;7.012;2023-07-20T12:10:57;6.13;;;1.63;;
33453;SDS011;39400;49.744;7.012;2023-07-20T12:13:23;1.85;;;1.30;;
33453;SDS011;39400;49.744;7.012;2023-07-20T12:15:48;2.90;;;1.10;;
33453;SDS011;39400;49.744;7.012;2023-07-20T12:18:13;2.50;;;1.30;;
33453;SDS011;39400;49.744;7.012;2023-07-20T12:20:39;2.35;;;1.02;;
33453;SDS011;39400;49.744;7.012;2023-07-20T12:23:05;2.10;;;0.98;;
33453;SDS011;39400;49.744;7.012;2023-07-20T12:28:38;2.90;;;1.50;;
33453;SDS011;39400;49.744;7.012;2023-07-20T12:30:54;3.30;;;1.30;;
33453;SDS011;39400;49.744;7.012;2023-07-20T12:33:19;5.10;;;1.60;;
33453;SDS011;39400;49.744;7.012;2023-07-20T12:35:45;2.10;;;1.10;;
33453;SDS011;39400;49.744;7.012;2023-07-20T12:38:10;5.00;;;1.85;;
33453;SDS011;39400;49.744;7.012;2023-07-20T12:40:35;5.72;;;1.10;;
33453;SDS011;39400;49.744;7.012;2023-07-20T12:43:01;9.88;;;2.42;;
33453;SDS011;39400;49.744;7.012;2023-07-20T12:45:26;2.50;;;1.35;;
33453;SDS011;39400;49.744;7.012;2023-07-20T12:47:52;6.93;;;1.30;;
33453;SDS011;39400;49.744;7.012;2023-07-20T12:50:17;2.47;;;1.20;;
33453;SDS011;39400;49.744;7.012;2023-07-20T12:52:42;3.03;;;1.27;;
33453;SDS011;39400;49.744;7.012;2023-07-20T12:55:08;4.43;;;1.58;;
33453;SDS011;39400;49.744;7.012;2023-07-20T12:57:35;1.88;;;1.20;;
33453;SDS011;39400;49.744;7.012;2023-07-20T13:00:01;4.88;;;1.95;;
33453;SDS011;39400;49.744;7.012;2023-07-20T13:02:28;1.77;;;1.10;;
33453;SDS011;39400;49.744;7.012;2023-07-20T13:04:53;2.05;;;1.27;;
33453;SDS011;39400;49.744;7.012;2023-07-20T13:07:22;6.20;;;1.20;;
33453;SDS011;39400;49.744;7.012;2023-07-20T13:09:55;2.83;;;1.50;;
33453;SDS011;39400;49.744;7.012;2023-07-20T13:12:20;6.15;;;1.67;;
33453;SDS011;39400;49.744;7.012;2023-07-20T13:14:45;1.77;;;1.10;;
33453;SDS011;39400;49.744;7.012;2023-07-20T13:17:11;1.40;;;0.90;;
33453;SDS011;39400;49.744;7.012;2023-07-20T13:19:36;5.82;;;1.23;;
33453;SDS011;39400;49.744;7.012;2023-07-20T13:22:01;1.95;;;1.25;;
33453;SDS011;39400;49.744;7.012;2023-07-20T13:24:26;2.05;;;1.20;;
33453;SDS011;39400;49.744;7.012;2023-07-20T13:26:52;5.55;;;1.50;;
33453;SDS011;39400;49.744;7.012;2023-07-20T13:29:17;2.08;;;1.60;;
33453;SDS011;39400;49.744;7.012;2023-07-20T13:31:42;4.03;;;1.83;;
33453;SDS011;39400;49.744;7.012;2023-07-20T13:34:08;2.45;;;1.30;;
33453;SDS011;39400;49.744;7.012;2023-07-20T13:36:33;2.85;;;1.65;;
33453;SDS011;39400;49.744;7.012;2023-07-20T13:38:58;1.23;;;1.10;;
33453;SDS011;39400;49.744;7.012;2023-07-20T13:41:23;4.03;;;1.52;;
33453;SDS011;39400;49.744;7.012;2023-07-20T13:43:49;8.73;;;1.75;;
33453;SDS011;39400;49.744;7.012;2023-07-20T13:46:14;1.90;;;1.13;;
33453;SDS011;39400;49.744;7.012;2023-07-20T13:48:39;3.20;;;1.30;;
33453;SDS011;39400;49.744;7.012;2023-07-20T13:51:05;3.63;;;2.00;;
33453;SDS011;39400;49.744;7.012;2023-07-20T13:53:30;3.58;;;1.40;;
33453;SDS011;39400;49.744;7.012;2023-07-20T13:55:55;2.63;;;1.42;;
33453;SDS011;39400;49.744;7.012;2023-07-20T13:58:21;3.38;;;1.58;;
33453;SDS011;39400;49.744;7.012;2023-07-20T14:00:46;2.63;;;1.23;;
33453;SDS011;39400;49.744;7.012;2023-07-20T14:03:11;1.58;;;1.15;;
33453;SDS011;39400;49.744;7.012;2023-07-20T14:05:36;1.85;;;1.17;;
33453;SDS011;39400;49.744;7.012;2023-07-20T14:08:02;2.08;;;1.33;;
33453;SDS011;39400;49.744;7.012;2023-07-20T14:10:27;6.18;;;1.20;;
33453;SDS011;39400;49.744;7.012;2023-07-20T14:12:52;3.28;;;1.33;;
33453;SDS011;39400;49.744;7.012;2023-07-20T14:15:18;1.30;;;1.00;;
33453;SDS011;39400;49.744;7.012;2023-07-20T14:17:43;2.25;;;1.50;;
33453;SDS011;39400;49.744;7.012;2023-07-20T14:20:09;1.92;;;0.98;;
33453;SDS011;39400;49.744;7.012;2023-07-20T14:22:34;1.35;;;1.02;;
33453;SDS011;39400;49.744;7.012;2023-07-20T14:25:00;2.92;;;1.27;;
33453;SDS011;39400;49.744;7.012;2023-07-20T14:27:25;1.88;;;1.30;;
33453;SDS011;39400;49.744;7.012;2023-07-20T14:29:50;1.60;;;0.98;;
33453;SDS011;39400;49.744;7.012;2023-07-20T14:32:15;2.33;;;1.13;;
33453;SDS011;39400;49.744;7.012;2023-07-20T14:34:41;2.65;;;1.65;;
33453;SDS011;39400;49.744;7.012;2023-07-20T14:37:06;2.55;;;1.02;;
33453;SDS011;39400;49.744;7.012;2023-07-20T14:39:32;4.22;;;1.08;;
33453;SDS011;39400;49.744;7.012;2023-07-20T14:41:57;3.10;;;1.52;;
33453;SDS011;39400;49.744;7.012;2023-07-20T14:44:23;1.55;;;1.10;;
33453;SDS011;39400;49.744;7.012;2023-07-20T14:46:48;4.50;;;1.17;;
33453;SDS011;39400;49.744;7.012;2023-07-20T14:49:13;4.53;;;2.70;;
33453;SDS011;39400;49.744;7.012;2023-07-20T14:51:39;3.88;;;1.20;;
33453;SDS011;39400;49.744;7.012;2023-07-20T14:54:06;3.75;;;1.05;;
33453;SDS011;39400;49.744;7.012;2023-07-20T14:56:31;3.38;;;1.00;;
33453;SDS011;39400;49.744;7.012;2023-07-20T14:58:56;1.38;;;1.15;;
33453;SDS011;39400;49.744;7.012;2023-07-20T15:01:22;2.10;;;1.20;;